createdAt,value
2018-04-23T00:00:28.705Z,17.00
2018-04-23T00:02:56.197Z,16.90
2018-04-23T00:05:23.673Z,16.90
2018-04-23T00:07:51.167Z,16.90
2018-04-23T00:10:18.636Z,16.90
2018-04-23T00:12:46.140Z,16.90
2018-04-23T00:15:13.620Z,16.80
2018-04-23T00:17:41.117Z,16.80
2018-04-23T00:20:08.601Z,16.80
2018-04-23T00:22:36.092Z,16.80
2018-04-23T00:25:03.570Z,16.80
2018-04-23T00:27:31.837Z,16.70
2018-04-23T00:29:59.314Z,16.60
2018-04-23T00:32:26.814Z,16.60
2018-04-23T00:34:54.285Z,16.60
2018-04-23T00:37:21.781Z,16.60
2018-04-23T00:39:49.257Z,16.60
2018-04-23T00:42:17.496Z,16.60
2018-04-23T00:44:44.998Z,16.50
2018-04-23T00:47:13.233Z,16.50
2018-04-23T00:49:40.726Z,16.50
2018-04-23T00:52:08.197Z,16.50
2018-04-23T00:54:36.457Z,16.50
2018-04-23T00:57:03.928Z,16.40
2018-04-23T00:59:32.190Z,16.50
2018-04-23T01:01:59.657Z,16.40
2018-04-23T01:04:27.161Z,16.50
2018-04-23T01:06:54.657Z,16.40
2018-04-23T01:09:22.157Z,16.40
2018-04-23T01:11:49.636Z,16.40
2018-04-23T01:14:17.129Z,16.40
2018-04-23T01:16:44.597Z,16.40
2018-04-23T01:19:12.086Z,16.40
2018-04-23T01:21:39.565Z,16.40
2018-04-23T01:24:07.056Z,16.40
2018-04-23T01:26:34.537Z,16.40
2018-04-23T01:29:02.033Z,16.40
2018-04-23T01:31:29.513Z,16.40
2018-04-23T01:33:57.009Z,16.40
2018-04-23T01:36:24.486Z,16.40
2018-04-23T01:38:51.981Z,16.40
2018-04-23T01:41:19.457Z,16.30
2018-04-23T01:43:46.959Z,16.30
2018-04-23T01:46:14.433Z,16.30
2018-04-23T01:48:41.921Z,16.30
2018-04-23T01:51:09.413Z,16.30
2018-04-23T01:53:36.886Z,16.20
2018-04-23T01:56:04.382Z,16.20
2018-04-23T01:58:31.860Z,16.10
2018-04-23T02:00:59.348Z,16.10
2018-04-23T02:03:26.831Z,16.10
2018-04-23T02:05:54.326Z,16.10
2018-04-23T02:08:21.792Z,16.10
2018-04-23T02:10:49.289Z,16.00
2018-04-23T02:13:16.757Z,16.00
2018-04-23T02:15:44.261Z,16.00
2018-04-23T02:18:12.501Z,16.00
2018-04-23T02:20:39.995Z,15.90
2018-04-23T02:23:07.473Z,16.00
2018-04-23T02:25:34.970Z,16.00
2018-04-23T02:28:02.444Z,16.00
2018-04-23T02:30:29.935Z,16.00
2018-04-23T02:32:57.413Z,16.10
2018-04-23T02:35:24.908Z,16.10
2018-04-23T02:37:52.390Z,16.10
2018-04-23T02:40:19.898Z,16.10
2018-04-23T02:42:47.377Z,16.10
2018-04-23T02:45:14.873Z,16.10
2018-04-23T02:47:42.353Z,16.00
2018-04-23T02:50:09.856Z,16.00
2018-04-23T02:52:37.370Z,16.00
2018-04-23T02:55:04.841Z,16.00
2018-04-23T02:57:32.333Z,16.10
2018-04-23T02:59:59.813Z,16.00
2018-04-23T03:02:28.073Z,16.00
2018-04-23T03:04:55.545Z,16.00
2018-04-23T03:07:23.041Z,16.00
2018-04-23T03:09:50.556Z,16.00
2018-04-23T03:12:18.053Z,16.00
2018-04-23T03:14:45.533Z,16.00
2018-04-23T03:17:13.022Z,16.00
2018-04-23T03:19:40.499Z,16.00
2018-04-23T03:22:07.992Z,16.00
2018-04-23T03:24:35.470Z,16.00
2018-04-23T03:27:02.961Z,16.00
2018-04-23T03:29:30.444Z,16.00
2018-04-23T03:31:58.706Z,16.00
2018-04-23T03:34:26.186Z,16.00
2018-04-23T03:36:54.675Z,16.00
2018-04-23T03:39:22.917Z,16.00
2018-04-23T03:41:50.408Z,16.00
2018-04-23T03:44:17.888Z,16.00
2018-04-23T03:46:46.157Z,16.00
2018-04-23T03:49:13.634Z,16.00
2018-04-23T03:51:41.133Z,16.00
2018-04-23T03:54:08.621Z,16.00
2018-04-23T03:56:36.105Z,16.00
2018-04-23T03:59:03.596Z,16.00
2018-04-23T04:01:31.106Z,16.00
2018-04-23T04:03:58.603Z,16.00
2018-04-23T04:06:26.084Z,16.00
2018-04-23T04:08:53.581Z,16.00
2018-04-23T04:11:21.057Z,16.00
2018-04-23T04:14:00.246Z,16.00
2018-04-23T04:16:39.442Z,16.00
2018-04-23T04:19:06.930Z,16.10
2018-04-23T04:21:34.417Z,16.10
2018-04-23T04:24:01.909Z,16.10
2018-04-23T04:26:29.394Z,16.10
2018-04-23T04:28:58.606Z,16.10
2018-04-23T04:31:26.093Z,16.10
2018-04-23T04:33:53.905Z,16.10
2018-04-23T04:36:21.378Z,16.10
2018-04-23T04:38:48.869Z,16.10
2018-04-23T04:41:16.354Z,16.10
2018-04-23T04:43:44.612Z,16.10
2018-04-23T04:46:12.087Z,16.00
2018-04-23T04:48:39.589Z,16.00
2018-04-23T04:51:07.081Z,16.00
2018-04-23T04:53:34.586Z,15.90
2018-04-23T04:56:02.065Z,15.90
2018-04-23T04:58:29.557Z,15.90
2018-04-23T05:00:57.033Z,15.90
2018-04-23T05:03:24.521Z,15.80
2018-04-23T05:05:52.001Z,15.80
2018-04-23T05:08:19.501Z,15.90
2018-04-23T05:10:46.973Z,15.90
2018-04-23T05:13:14.444Z,15.90
2018-04-23T05:15:41.943Z,15.90
2018-04-23T05:18:09.429Z,15.90
2018-04-23T05:20:36.926Z,16.00
2018-04-23T05:23:04.407Z,16.10
2018-04-23T05:25:31.905Z,16.10
2018-04-23T05:27:59.389Z,16.10
2018-04-23T05:30:26.890Z,16.10
2018-04-23T05:32:54.365Z,16.20
2018-04-23T05:35:21.866Z,16.20
2018-04-23T05:37:49.357Z,16.30
2018-04-23T05:40:16.853Z,16.30
2018-04-23T05:42:44.328Z,16.40
2018-04-23T05:45:11.826Z,16.40
2018-04-23T05:47:39.303Z,16.50
2018-04-23T05:50:06.806Z,16.60
2018-04-23T05:52:34.285Z,16.60
2018-04-23T05:55:01.835Z,16.70
2018-04-23T05:57:29.278Z,16.80
2018-04-23T05:59:56.777Z,16.90
2018-04-23T06:02:24.249Z,16.90
2018-04-23T06:04:51.750Z,16.90
2018-04-23T06:07:19.217Z,16.90
2018-04-23T06:09:46.715Z,16.90
2018-04-23T06:12:14.209Z,16.90
2018-04-23T06:14:41.687Z,16.90
2018-04-23T06:17:09.957Z,16.90
2018-04-23T06:19:37.432Z,16.90
2018-04-23T06:22:04.935Z,16.90
2018-04-23T06:24:32.409Z,17.00
2018-04-23T06:26:59.919Z,17.00
2018-04-23T06:29:27.393Z,17.00
2018-04-23T06:31:54.893Z,17.10
2018-04-23T06:34:22.361Z,17.10
2018-04-23T06:36:49.861Z,17.10
2018-04-23T06:39:17.340Z,17.10
2018-04-23T06:41:44.834Z,17.20
2018-04-23T06:44:12.317Z,17.20
2018-04-23T06:46:39.822Z,17.20
2018-04-23T06:49:07.303Z,17.20
2018-04-23T06:51:34.801Z,17.30
2018-04-23T06:54:02.289Z,17.30
2018-04-23T06:56:29.781Z,17.40
2018-04-23T06:58:57.265Z,17.40
2018-04-23T07:01:25.522Z,17.50
2018-04-23T07:03:53.010Z,17.40
2018-04-23T07:06:20.505Z,17.50
2018-04-23T07:08:47.984Z,17.50
2018-04-23T07:11:15.485Z,17.50
2018-04-23T07:13:42.961Z,17.60
2018-04-23T07:16:10.433Z,17.60
2018-04-23T07:18:37.934Z,17.60
2018-04-23T07:21:05.405Z,17.60
2018-04-23T07:23:32.900Z,17.60
2018-04-23T07:26:00.380Z,17.60
2018-04-23T07:28:27.877Z,17.70
2018-04-23T07:30:55.349Z,17.70
2018-04-23T07:33:22.855Z,17.80
2018-04-23T07:35:50.329Z,17.90
2018-04-23T07:38:17.830Z,18.10
2018-04-23T07:40:45.356Z,18.20
2018-04-23T07:43:12.817Z,18.30
2018-04-23T07:45:40.297Z,18.40
2018-04-23T07:48:07.785Z,18.50
2018-04-23T07:50:35.265Z,18.60
2018-04-23T07:53:02.755Z,18.70
2018-04-23T07:55:30.225Z,18.80
2018-04-23T07:57:57.725Z,18.80
2018-04-23T08:00:25.201Z,18.90
2018-04-23T08:02:53.469Z,19.00
2018-04-23T08:05:20.953Z,18.90
2018-04-23T08:07:48.452Z,19.00
2018-04-23T08:10:16.702Z,19.20
2018-04-23T08:12:44.210Z,19.10
2018-04-23T08:15:11.688Z,19.30
2018-04-23T08:17:39.185Z,19.30
2018-04-23T08:20:06.670Z,19.30
2018-04-23T08:22:34.169Z,19.20
2018-04-23T08:25:01.661Z,19.20
2018-04-23T08:27:29.163Z,19.00
2018-04-23T08:29:56.645Z,18.80
2018-04-23T08:32:24.162Z,18.60
2018-04-23T08:34:51.641Z,18.40
2018-04-23T08:37:19.125Z,18.20
2018-04-23T08:39:46.617Z,18.00
2018-04-23T08:42:14.126Z,17.70
2018-04-23T08:44:41.628Z,17.50
2018-04-23T08:47:09.115Z,17.40
2018-04-23T08:49:37.393Z,17.00
2018-04-23T08:52:04.873Z,17.00
2018-04-23T08:54:32.374Z,16.90
2018-04-23T08:56:59.849Z,16.80
2018-04-23T08:59:27.350Z,16.80
2018-04-23T09:01:54.833Z,16.80
2018-04-23T09:04:22.334Z,16.80
2018-04-23T09:06:49.817Z,16.90
2018-04-23T09:09:17.308Z,16.90
2018-04-23T09:11:44.838Z,17.00
2018-04-23T09:14:12.293Z,17.00
2018-04-23T09:16:39.773Z,17.10
2018-04-23T09:19:07.282Z,17.30
2018-04-23T09:21:34.764Z,17.40
2018-04-23T09:24:02.262Z,17.50
2018-04-23T09:26:29.733Z,17.50
2018-04-23T09:28:57.218Z,17.60
2018-04-23T09:31:24.696Z,17.60
2018-04-23T09:33:52.165Z,17.60
2018-04-23T09:36:19.669Z,17.60
2018-04-23T09:38:47.153Z,17.60
2018-04-23T09:41:14.650Z,17.60
2018-04-23T09:43:42.138Z,17.70
2018-04-23T09:46:09.633Z,17.70
2018-04-23T09:48:37.150Z,17.80
2018-04-23T09:51:04.644Z,17.80
2018-04-23T09:53:32.177Z,17.90
2018-04-23T09:55:59.670Z,18.00
2018-04-23T09:58:27.281Z,18.10
2018-04-23T10:00:54.802Z,18.20
2018-04-23T10:03:25.185Z,18.20
2018-04-23T10:05:53.449Z,18.30
2018-04-23T10:08:20.997Z,18.30
2018-04-23T10:10:48.501Z,18.40
2018-04-23T10:13:15.983Z,18.40
2018-04-23T10:15:43.481Z,18.40
2018-04-23T10:18:10.970Z,18.30
2018-04-23T10:20:38.469Z,18.20
2018-04-23T10:23:05.962Z,18.20
2018-04-23T10:25:33.450Z,18.20
2018-04-23T10:28:00.934Z,18.10
2018-04-23T10:30:28.469Z,18.10
2018-04-23T10:32:55.977Z,18.10
2018-04-23T10:35:24.253Z,17.90
2018-04-23T10:37:51.785Z,17.80
2018-04-23T10:40:19.286Z,17.80
2018-04-23T10:42:47.541Z,17.50
2018-04-23T10:45:15.046Z,17.50
2018-04-23T10:47:42.530Z,17.50
2018-04-23T10:50:10.021Z,17.40
2018-04-23T10:52:37.506Z,17.30
2018-04-23T10:55:04.985Z,17.20
2018-04-23T10:57:32.477Z,17.10
2018-04-23T10:59:59.956Z,17.10
2018-04-23T11:02:27.453Z,17.00
2018-04-23T11:04:54.931Z,16.80
2018-04-23T11:07:22.429Z,16.80
2018-04-23T11:09:49.912Z,16.70
2018-04-23T11:12:17.423Z,16.70
2018-04-23T11:14:44.938Z,16.70
2018-04-23T11:17:12.445Z,16.60
2018-04-23T11:19:39.978Z,16.60
2018-04-23T11:22:07.473Z,16.50
2018-04-23T11:24:34.949Z,16.50
2018-04-23T11:27:02.495Z,16.60
2018-04-23T11:29:29.964Z,16.70
2018-04-23T11:31:57.481Z,16.70
2018-04-23T11:34:25.733Z,16.80
2018-04-23T11:36:53.277Z,16.80
2018-04-23T11:39:20.758Z,16.90
2018-04-23T11:41:48.257Z,16.90
2018-04-23T11:44:15.735Z,16.90
2018-04-23T11:46:43.227Z,16.80
2018-04-23T11:49:10.709Z,16.90
2018-04-23T11:51:38.990Z,17.00
2018-04-23T11:54:06.501Z,16.90
2018-04-23T11:56:34.033Z,17.00
2018-04-23T11:59:02.286Z,16.90
2018-04-23T12:01:29.826Z,16.90
2018-04-23T12:03:57.357Z,16.90
2018-04-23T12:06:24.852Z,16.90
2018-04-23T12:08:52.350Z,16.90
2018-04-23T12:11:19.825Z,16.90
2018-04-23T12:13:47.322Z,16.90
2018-04-23T12:16:14.847Z,16.90
2018-04-23T12:18:42.314Z,16.80
2018-04-23T12:21:09.789Z,16.70
2018-04-23T12:23:38.050Z,16.60
2018-04-23T12:26:05.530Z,16.60
2018-04-23T12:28:33.021Z,16.60
2018-04-23T12:31:00.505Z,16.50
2018-04-23T12:33:28.003Z,16.40
2018-04-23T12:35:55.537Z,16.30
2018-04-23T12:38:23.029Z,16.20
2018-04-23T12:40:50.500Z,16.10
2018-04-23T12:43:18.001Z,16.10
2018-04-23T12:45:45.476Z,16.10
2018-04-23T12:48:12.969Z,16.00
2018-04-23T12:50:40.448Z,16.00
2018-04-23T12:53:07.945Z,15.90
2018-04-23T12:55:35.417Z,15.80
2018-04-23T12:58:02.962Z,15.70
2018-04-23T13:00:30.450Z,15.60
2018-04-23T13:02:57.942Z,15.50
2018-04-23T13:05:25.442Z,15.40
2018-04-23T13:07:52.916Z,15.30
2018-04-23T13:10:20.409Z,15.30
2018-04-23T13:12:47.970Z,15.30
2018-04-23T13:15:15.453Z,15.30
2018-04-23T13:17:42.965Z,15.40
2018-04-23T13:20:10.481Z,15.50
2018-04-23T13:22:37.962Z,15.60
2018-04-23T13:25:05.473Z,15.70
2018-04-23T13:27:32.945Z,15.90
2018-04-23T13:30:00.448Z,16.00
2018-04-23T13:32:27.957Z,16.00
2018-04-23T13:34:55.449Z,16.10
2018-04-23T13:37:22.929Z,16.10
2018-04-23T13:39:50.432Z,16.10
2018-04-23T13:42:18.681Z,16.40
2018-04-23T13:44:46.173Z,16.30
2018-04-23T13:47:13.661Z,16.50
2018-04-23T13:49:41.193Z,16.70
2018-04-23T13:52:08.679Z,16.80
2018-04-23T13:54:36.190Z,17.00
2018-04-23T13:57:03.701Z,17.20
2018-04-23T13:59:31.237Z,17.40
2018-04-23T14:01:58.713Z,17.40
2018-04-23T14:04:26.262Z,17.50
2018-04-23T14:06:53.811Z,17.60
2018-04-23T14:09:21.317Z,17.60
2018-04-23T14:11:48.796Z,17.70
2018-04-23T14:14:16.272Z,17.70
2018-04-23T14:16:43.817Z,17.70
2018-04-23T14:19:12.075Z,17.70
2018-04-23T14:21:39.579Z,17.70
2018-04-23T14:24:08.177Z,17.80
2018-04-23T14:26:35.673Z,17.80
2018-04-23T14:29:03.185Z,17.90
2018-04-23T14:31:31.450Z,17.90
2018-04-23T14:33:58.938Z,17.90
2018-04-23T14:36:26.461Z,17.90
2018-04-23T14:38:53.947Z,18.00
2018-04-23T14:41:21.437Z,18.00
2018-04-23T14:43:48.914Z,18.00
2018-04-23T14:46:16.465Z,18.00
2018-04-23T14:48:43.941Z,18.00
2018-04-23T14:51:11.438Z,18.00
2018-04-23T14:53:38.924Z,18.10
2018-04-23T14:56:06.436Z,18.10
2018-04-23T14:58:33.933Z,18.00
2018-04-23T15:01:01.429Z,17.90
2018-04-23T15:03:28.949Z,17.80
2018-04-23T15:05:56.446Z,17.80
2018-04-23T15:08:23.953Z,17.70
2018-04-23T15:10:51.487Z,17.60
2018-04-23T15:13:18.965Z,17.50
2018-04-23T15:15:46.462Z,17.40
2018-04-23T15:18:13.941Z,17.30
2018-04-23T15:20:41.453Z,17.20
2018-04-23T15:23:08.933Z,17.20
2018-04-23T15:25:36.425Z,17.10
2018-04-23T15:28:03.945Z,17.00
2018-04-23T15:30:31.457Z,16.90
2018-04-23T15:32:59.742Z,16.70
2018-04-23T15:35:27.329Z,16.60
2018-04-23T15:37:54.849Z,16.60
2018-04-23T15:40:22.335Z,16.50
2018-04-23T15:42:49.842Z,16.50
2018-04-23T15:45:18.166Z,16.40
2018-04-23T15:47:45.673Z,16.40
2018-04-23T15:50:13.170Z,16.40
2018-04-23T15:52:40.723Z,16.40
2018-04-23T15:55:08.170Z,16.30
2018-04-23T15:57:35.734Z,16.20
2018-04-23T16:00:03.208Z,16.20
2018-04-23T16:02:30.712Z,16.10
2018-04-23T16:04:58.198Z,16.10
2018-04-23T16:07:25.717Z,16.00
2018-04-23T16:09:53.242Z,16.00
2018-04-23T16:12:20.750Z,15.90
2018-04-23T16:14:48.236Z,15.90
2018-04-23T16:17:15.769Z,15.90
2018-04-23T16:19:43.251Z,15.80
2018-04-23T16:22:11.522Z,15.80
2018-04-23T16:24:39.080Z,15.70
2018-04-23T16:27:06.533Z,15.80
2018-04-23T16:29:34.007Z,15.80
2018-04-23T16:32:01.545Z,15.80
2018-04-23T16:34:29.074Z,15.70
2018-04-23T16:36:56.567Z,15.70
2018-04-23T16:39:24.073Z,15.70
2018-04-23T16:41:51.553Z,15.70
2018-04-23T16:44:19.045Z,15.70
2018-04-23T16:46:46.526Z,15.70
2018-04-23T16:49:14.028Z,15.70
2018-04-23T16:51:41.560Z,15.70
2018-04-23T16:54:09.053Z,15.70
2018-04-23T16:56:36.539Z,15.70
2018-04-23T16:59:04.044Z,15.70
2018-04-23T17:01:32.297Z,15.70
2018-04-23T17:04:01.636Z,15.70
2018-04-23T17:06:35.551Z,15.70
2018-04-23T17:09:04.293Z,15.60
2018-04-23T17:11:31.789Z,15.50
2018-04-23T17:13:59.320Z,15.60
2018-04-23T17:16:26.848Z,15.60
2018-04-23T17:18:54.357Z,15.50
2018-04-23T17:21:21.837Z,15.50
2018-04-23T17:23:49.345Z,15.50
2018-04-23T17:26:16.829Z,15.40
2018-04-23T17:28:44.329Z,15.40
2018-04-23T17:31:11.809Z,15.40
2018-04-23T17:33:39.313Z,15.30
2018-04-23T17:36:06.801Z,15.30
2018-04-23T17:38:34.312Z,15.30
2018-04-23T17:41:01.789Z,15.30
2018-04-23T17:43:29.277Z,15.30
2018-04-23T17:45:56.772Z,15.20
2018-04-23T17:48:24.278Z,15.20
2018-04-23T17:50:52.554Z,15.00
2018-04-23T17:53:21.654Z,15.00
2018-04-23T17:55:49.199Z,15.00
2018-04-23T17:58:16.769Z,15.00
2018-04-23T18:00:44.274Z,14.90
2018-04-23T18:03:11.754Z,14.90
2018-04-23T18:05:39.945Z,14.90
2018-04-23T18:08:07.427Z,14.90
2018-04-23T18:10:34.950Z,14.80
2018-04-23T18:13:02.460Z,14.80
2018-04-23T18:15:29.956Z,14.80
2018-04-23T18:17:57.452Z,14.80
2018-04-23T18:20:25.721Z,14.70
2018-04-23T18:22:53.202Z,14.70
2018-04-23T18:25:20.705Z,14.70
2018-04-23T18:27:48.268Z,14.70
2018-04-23T18:30:15.788Z,14.70
2018-04-23T18:32:43.572Z,14.70
2018-04-23T18:35:11.103Z,14.60
2018-04-23T18:37:38.581Z,14.60
2018-04-23T18:40:06.147Z,14.60
2018-04-23T18:42:33.626Z,14.60
2018-04-23T18:45:01.187Z,14.60
2018-04-23T18:47:28.670Z,14.60
2018-04-23T18:49:56.195Z,14.50
2018-04-23T18:52:24.714Z,14.50
2018-04-23T18:54:52.198Z,14.50
2018-04-23T18:57:19.708Z,14.40
2018-04-23T18:59:47.193Z,14.40
2018-04-23T19:02:14.690Z,14.30
2018-04-23T19:04:42.181Z,14.30
2018-04-23T19:07:10.098Z,14.20
2018-04-23T19:09:37.614Z,14.20
2018-04-23T19:12:05.105Z,14.10
2018-04-23T19:14:32.597Z,14.10
2018-04-23T19:17:00.098Z,14.00
2018-04-23T19:19:27.574Z,14.00
2018-04-23T19:21:55.157Z,14.00
2018-04-23T19:24:22.570Z,14.00
2018-04-23T19:26:50.067Z,14.00
2018-04-23T19:29:17.545Z,13.90
2018-04-23T19:31:45.043Z,13.90
2018-04-23T19:34:12.525Z,13.90
2018-04-23T19:36:40.014Z,13.90
2018-04-23T19:39:08.262Z,13.90
2018-04-23T19:41:35.774Z,13.90
2018-04-23T19:44:03.269Z,13.90
2018-04-23T19:46:30.758Z,13.90
2018-04-23T19:48:58.241Z,14.00
2018-04-23T19:51:25.745Z,14.00
2018-04-23T19:53:53.218Z,13.90
2018-04-23T19:56:20.716Z,13.90
2018-04-23T19:58:48.196Z,13.90
2018-04-23T20:01:15.693Z,13.80
2018-04-23T20:03:43.179Z,13.80
2018-04-23T20:06:10.659Z,13.70
2018-04-23T20:08:38.964Z,13.60
2018-04-23T20:11:06.454Z,13.60
2018-04-23T20:13:33.954Z,13.60
2018-04-23T20:16:01.433Z,13.60
2018-04-23T20:18:28.933Z,13.60
2018-04-23T20:20:56.409Z,13.60
2018-04-23T20:23:23.921Z,13.60
2018-04-23T20:25:51.410Z,13.50
2018-04-23T20:28:18.909Z,13.50
2018-04-23T20:30:46.385Z,13.50
2018-04-23T20:33:13.884Z,13.40
2018-04-23T20:35:41.355Z,13.40
2018-04-23T20:38:08.856Z,13.30
2018-04-23T20:40:36.339Z,13.30
2018-04-23T20:43:03.833Z,13.20
2018-04-23T20:45:31.313Z,13.20
2018-04-23T20:47:58.809Z,13.10
2018-04-23T20:50:26.290Z,13.10
2018-04-23T20:52:53.788Z,13.00
2018-04-23T20:55:21.265Z,13.00
2018-04-23T20:57:48.759Z,12.90
2018-04-23T21:00:16.247Z,12.90
2018-04-23T21:02:43.736Z,12.90
2018-04-23T21:05:11.980Z,12.80
2018-04-23T21:07:39.482Z,12.80
2018-04-23T21:10:06.962Z,12.80
2018-04-23T21:12:34.457Z,12.80
2018-04-23T21:15:01.957Z,12.70
2018-04-23T21:17:29.462Z,12.70
2018-04-23T21:19:56.947Z,12.70
2018-04-23T21:22:24.459Z,12.70
2018-04-23T21:24:51.941Z,12.70
2018-04-23T21:27:19.453Z,12.60
2018-04-23T21:29:46.946Z,12.60
2018-04-23T21:32:14.420Z,12.60
2018-04-23T21:34:41.926Z,12.50
2018-04-23T21:37:09.420Z,12.50
2018-04-23T21:39:36.926Z,12.50
2018-04-23T21:42:04.418Z,12.40
2018-04-23T21:44:31.913Z,12.40
2018-04-23T21:46:59.384Z,12.30
2018-04-23T21:49:26.890Z,12.30
2018-04-23T21:51:54.373Z,12.20
2018-04-23T21:54:21.869Z,12.10
2018-04-23T21:56:49.346Z,12.10
2018-04-23T21:59:16.832Z,12.00
2018-04-23T22:01:44.310Z,12.00
2018-04-23T22:04:11.801Z,12.00
2018-04-23T22:06:39.278Z,12.00
2018-04-23T22:09:06.766Z,12.00
2018-04-23T22:11:34.249Z,11.90
2018-04-23T22:14:01.753Z,11.90
2018-04-23T22:16:29.232Z,11.90
2018-04-23T22:18:56.729Z,11.80
2018-04-23T22:21:24.214Z,11.80
2018-04-23T22:23:51.737Z,11.80
2018-04-23T22:26:19.217Z,11.80
2018-04-23T22:28:46.716Z,11.80
2018-04-23T22:31:14.192Z,11.70
2018-04-23T22:33:41.673Z,11.70
2018-04-23T22:36:09.162Z,11.60
2018-04-23T22:38:36.641Z,11.60
2018-04-23T22:41:04.145Z,11.60
2018-04-23T22:43:31.624Z,11.60
2018-04-23T22:45:59.128Z,11.50
2018-04-23T22:48:27.373Z,11.40
2018-04-23T22:50:54.867Z,11.40
2018-04-23T22:53:22.342Z,11.40
2018-04-23T22:55:49.836Z,11.40
2018-04-23T22:58:17.309Z,11.40
2018-04-23T23:00:45.583Z,11.30
2018-04-23T23:03:13.068Z,11.20
2018-04-23T23:05:40.589Z,11.30
2018-04-23T23:08:08.832Z,11.30
2018-04-23T23:10:37.093Z,11.30
2018-04-23T23:13:04.577Z,11.20
2018-04-23T23:15:32.077Z,11.20
2018-04-23T23:17:59.549Z,11.20
2018-04-23T23:20:27.049Z,11.20
2018-04-23T23:22:54.529Z,11.20
2018-04-23T23:25:22.029Z,11.10
2018-04-23T23:27:49.506Z,11.10
2018-04-23T23:30:17.013Z,11.00
2018-04-23T23:32:44.489Z,11.00
2018-04-23T23:35:11.985Z,10.90
2018-04-23T23:37:39.460Z,10.90
2018-04-23T23:40:06.957Z,10.90
2018-04-23T23:42:34.438Z,10.80
2018-04-23T23:45:01.943Z,10.80
2018-04-23T23:47:29.420Z,10.80
2018-04-23T23:49:56.913Z,10.70
2018-04-23T23:52:24.393Z,10.80
2018-04-23T23:54:51.873Z,10.80
2018-04-23T23:57:19.381Z,10.80
2018-04-23T23:59:46.853Z,10.80
